sensor_id;sensor_type;location;lat;lon;timestamp;pressure;altitude;pressure_sealevel;temperature;humidity
18436;BME280;9346;52.006;4.720;2023-02-18T00:00:07;102157.50;;;10.92;100.00
18436;BME280;9346;52.006;4.720;2023-02-18T00:02:35;102163.50;;;10.89;100.00
18436;BME280;9346;52.006;4.720;2023-02-18T00:05:03;102157.91;;;10.84;100.00
18436;BME280;9346;52.006;4.720;2023-02-18T00:07:33;102150.94;;;10.82;100.00
18436;BME280;9346;52.006;4.720;2023-02-18T00:10:00;102147.00;;;10.78;100.00
18436;BME280;9346;52.006;4.720;2023-02-18T00:12:27;102143.88;;;10.74;100.00
18436;BME280;9346;52.006;4.720;2023-02-18T00:14:56;102143.31;;;10.72;100.00
18436;BME280;9346;52.006;4.720;2023-02-18T00:17:23;102142.72;;;10.70;100.00
18436;BME280;9346;52.006;4.720;2023-02-18T00:19:50;102138.03;;;10.71;100.00
18436;BME280;9346;52.006;4.720;2023-02-18T00:22:17;102141.63;;;10.71;100.00
18436;BME280;9346;52.006;4.720;2023-02-18T00:24:44;102135.03;;;10.72;100.00
18436;BME280;9346;52.006;4.720;2023-02-18T00:27:11;102139.38;;;10.68;100.00
18436;BME280;9346;52.006;4.720;2023-02-18T00:29:38;102133.88;;;10.68;100.00
18436;BME280;9346;52.006;4.720;2023-02-18T00:32:07;102134.09;;;10.67;100.00
18436;BME280;9346;52.006;4.720;2023-02-18T00:34:34;102123.34;;;10.65;100.00
18436;BME280;9346;52.006;4.720;2023-02-18T00:37:01;102127.38;;;10.63;100.00
18436;BME280;9346;52.006;4.720;2023-02-18T00:39:28;102116.84;;;10.60;100.00
18436;BME280;9346;52.006;4.720;2023-02-18T00:41:55;102110.28;;;10.61;100.00
18436;BME280;9346;52.006;4.720;2023-02-18T00:44:22;102114.09;;;10.60;100.00
18436;BME280;9346;52.006;4.720;2023-02-18T00:46:49;102110.53;;;10.59;100.00
18436;BME280;9346;52.006;4.720;2023-02-18T00:49:19;102111.59;;;10.58;100.00
18436;BME280;9346;52.006;4.720;2023-02-18T00:51:46;102108.81;;;10.58;100.00
18436;BME280;9346;52.006;4.720;2023-02-18T00:54:13;102109.06;;;10.57;100.00
18436;BME280;9346;52.006;4.720;2023-02-18T00:56:40;102112.91;;;10.56;100.00
18436;BME280;9346;52.006;4.720;2023-02-18T00:59:06;102110.75;;;10.58;100.00
18436;BME280;9346;52.006;4.720;2023-02-18T01:01:33;102099.50;;;10.59;100.00
18436;BME280;9346;52.006;4.720;2023-02-18T01:04:01;102106.06;;;10.58;100.00
18436;BME280;9346;52.006;4.720;2023-02-18T01:06:30;102102.50;;;10.58;100.00
18436;BME280;9346;52.006;4.720;2023-02-18T01:08:57;102111.34;;;10.60;100.00
18436;BME280;9346;52.006;4.720;2023-02-18T01:11:24;102103.69;;;10.62;100.00
18436;BME280;9346;52.006;4.720;2023-02-18T01:13:51;102103.69;;;10.62;100.00
18436;BME280;9346;52.006;4.720;2023-02-18T01:16:18;102099.25;;;10.61;100.00
18436;BME280;9346;52.006;4.720;2023-02-18T01:18:45;102095.91;;;10.59;100.00
18436;BME280;9346;52.006;4.720;2023-02-18T01:21:12;102094.00;;;10.59;100.00
18436;BME280;9346;52.006;4.720;2023-02-18T01:23:41;102085.97;;;10.58;100.00
18436;BME280;9346;52.006;4.720;2023-02-18T01:26:09;102084.88;;;10.59;100.00
18436;BME280;9346;52.006;4.720;2023-02-18T01:28:37;102084.03;;;10.58;100.00
18436;BME280;9346;52.006;4.720;2023-02-18T01:31:06;102090.75;;;10.62;100.00
18436;BME280;9346;52.006;4.720;2023-02-18T01:33:33;102074.22;;;10.62;100.00
18436;BME280;9346;52.006;4.720;2023-02-18T01:36:00;102071.22;;;10.64;100.00
18436;BME280;9346;52.006;4.720;2023-02-18T01:38:27;102085.00;;;10.64;100.00
18436;BME280;9346;52.006;4.720;2023-02-18T01:40:56;102077.53;;;10.64;100.00
18436;BME280;9346;52.006;4.720;2023-02-18T01:43:23;102081.38;;;10.63;100.00
18436;BME280;9346;52.006;4.720;2023-02-18T01:45:59;102072.88;;;10.65;100.00
18436;BME280;9346;52.006;4.720;2023-02-18T01:48:31;102076.72;;;10.64;100.00
18436;BME280;9346;52.006;4.720;2023-02-18T01:51:03;102072.03;;;10.64;100.00
18436;BME280;9346;52.006;4.720;2023-02-18T01:53:35;102059.72;;;10.67;100.00
18436;BME280;9346;52.006;4.720;2023-02-18T01:56:09;102056.09;;;10.66;100.00
18436;BME280;9346;52.006;4.720;2023-02-18T01:58:37;102054.78;;;10.69;100.00
18436;BME280;9346;52.006;4.720;2023-02-18T02:01:05;102047.09;;;10.71;100.00
18436;BME280;9346;52.006;4.720;2023-02-18T02:03:32;102049.63;;;10.72;100.00
18436;BME280;9346;52.006;4.720;2023-02-18T02:05:59;102041.91;;;10.74;100.00
18436;BME280;9346;52.006;4.720;2023-02-18T02:08:27;102039.41;;;10.73;100.00
18436;BME280;9346;52.006;4.720;2023-02-18T02:11:09;102039.66;;;10.71;100.00
18436;BME280;9346;52.006;4.720;2023-02-18T02:14:00;102021.81;;;10.74;100.00
18436;BME280;9346;52.006;4.720;2023-02-18T02:16:34;102028.13;;;10.74;100.00
18436;BME280;9346;52.006;4.720;2023-02-18T02:19:23;102011.34;;;10.76;100.00
18436;BME280;9346;52.006;4.720;2023-02-18T02:22:15;102008.59;;;10.76;100.00
18436;BME280;9346;52.006;4.720;2023-02-18T02:25:00;102003.94;;;10.76;100.00
18436;BME280;9346;52.006;4.720;2023-02-18T02:27:48;101999.28;;;10.77;100.00
18436;BME280;9346;52.006;4.720;2023-02-18T02:30:41;101997.09;;;10.79;100.00
18436;BME280;9346;52.006;4.720;2023-02-18T02:33:35;101989.66;;;10.79;100.00
18436;BME280;9346;52.006;4.720;2023-02-18T02:36:13;101978.53;;;10.74;100.00
18436;BME280;9346;52.006;4.720;2023-02-18T02:38:50;101965.84;;;10.73;100.00
18436;BME280;9346;52.006;4.720;2023-02-18T02:41:29;101965.25;;;10.71;100.00
18436;BME280;9346;52.006;4.720;2023-02-18T02:44:06;101955.06;;;10.72;100.00
18436;BME280;9346;52.006;4.720;2023-02-18T02:46:38;101954.22;;;10.71;100.00
18436;BME280;9346;52.006;4.720;2023-02-18T02:49:13;101949.00;;;10.70;100.00
18436;BME280;9346;52.006;4.720;2023-02-18T02:51:47;101946.47;;;10.68;100.00
18436;BME280;9346;52.006;4.720;2023-02-18T02:54:18;101934.00;;;10.66;100.00
18436;BME280;9346;52.006;4.720;2023-02-18T02:56:45;101933.44;;;10.64;100.00
18436;BME280;9346;52.006;4.720;2023-02-18T02:59:17;101929.25;;;10.61;100.00
18436;BME280;9346;52.006;4.720;2023-02-18T03:01:57;101929.50;;;10.60;100.00
18436;BME280;9346;52.006;4.720;2023-02-18T03:04:46;101931.06;;;10.56;100.00
18436;BME280;9346;52.006;4.720;2023-02-18T03:10:24;101923.91;;;10.55;100.00
18436;BME280;9346;52.006;4.720;2023-02-18T03:13:00;101925.81;;;10.54;100.00
18436;BME280;9346;52.006;4.720;2023-02-18T03:15:34;101920.31;;;10.54;100.00
18436;BME280;9346;52.006;4.720;2023-02-18T03:18:07;101927.75;;;10.54;100.00
18436;BME280;9346;52.006;4.720;2023-02-18T03:20:40;101916.22;;;10.57;100.00
18436;BME280;9346;52.006;4.720;2023-02-18T03:23:14;101910.44;;;10.58;100.00
18436;BME280;9346;52.006;4.720;2023-02-18T03:25:43;101911.91;;;10.61;100.00
18436;BME280;9346;52.006;4.720;2023-02-18T03:28:14;101900.88;;;10.61;100.00
18436;BME280;9346;52.006;4.720;2023-02-18T03:30:47;101898.69;;;10.63;100.00
18436;BME280;9346;52.006;4.720;2023-02-18T03:33:19;101889.38;;;10.64;100.00
18436;BME280;9346;52.006;4.720;2023-02-18T03:35:49;101876.16;;;10.66;100.00
18436;BME280;9346;52.006;4.720;2023-02-18T03:38:23;101870.63;;;10.66;100.00
18436;BME280;9346;52.006;4.720;2023-02-18T03:40:51;101874.50;;;10.65;100.00
18436;BME280;9346;52.006;4.720;2023-02-18T03:43:18;101870.38;;;10.67;100.00
18436;BME280;9346;52.006;4.720;2023-02-18T03:45:45;101871.25;;;10.68;100.00
18436;BME280;9346;52.006;4.720;2023-02-18T03:48:13;101864.63;;;10.69;100.00
18436;BME280;9346;52.006;4.720;2023-02-18T03:50:39;101858.63;;;10.72;100.00
18436;BME280;9346;52.006;4.720;2023-02-18T03:53:06;101860.53;;;10.71;100.00
18436;BME280;9346;52.006;4.720;2023-02-18T03:55:35;101853.09;;;10.72;100.00
18436;BME280;9346;52.006;4.720;2023-02-18T03:58:02;101849.50;;;10.71;100.00
18436;BME280;9346;52.006;4.720;2023-02-18T04:00:30;101847.03;;;10.70;100.00
18436;BME280;9346;52.006;4.720;2023-02-18T04:02:57;101852.53;;;10.70;100.00
18436;BME280;9346;52.006;4.720;2023-02-18T04:05:24;101849.50;;;10.71;100.00
18436;BME280;9346;52.006;4.720;2023-02-18T04:07:51;101851.19;;;10.72;100.00
18436;BME280;9346;52.006;4.720;2023-02-18T04:10:19;101843.75;;;10.73;100.00
18436;BME280;9346;52.006;4.720;2023-02-18T04:12:49;101839.09;;;10.73;100.00
18436;BME280;9346;52.006;4.720;2023-02-18T04:15:15;101837.41;;;10.72;100.00
18436;BME280;9346;52.006;4.720;2023-02-18T04:17:43;101838.22;;;10.73;100.00
18436;BME280;9346;52.006;4.720;2023-02-18T04:20:10;101837.97;;;10.74;100.00
18436;BME280;9346;52.006;4.720;2023-02-18T04:22:37;101847.94;;;10.75;100.00
18436;BME280;9346;52.006;4.720;2023-02-18T04:25:05;101842.44;;;10.75;100.00
18436;BME280;9346;52.006;4.720;2023-02-18T04:27:33;101836.66;;;10.77;100.00
18436;BME280;9346;52.006;4.720;2023-02-18T04:30:03;101833.41;;;10.80;100.00
18436;BME280;9346;52.006;4.720;2023-02-18T04:32:30;101829.56;;;10.81;100.00
18436;BME280;9346;52.006;4.720;2023-02-18T04:34:57;101844.75;;;10.83;100.00
18436;BME280;9346;52.006;4.720;2023-02-18T04:37:24;101830.41;;;10.81;100.00
18436;BME280;9346;52.006;4.720;2023-02-18T04:39:51;101827.41;;;10.83;100.00
18436;BME280;9346;52.006;4.720;2023-02-18T04:42:18;101829.06;;;10.84;100.00
18436;BME280;9346;52.006;4.720;2023-02-18T04:44:45;101821.34;;;10.86;100.00
18436;BME280;9346;52.006;4.720;2023-02-18T04:47:14;101824.09;;;10.86;100.00
18436;BME280;9346;52.006;4.720;2023-02-18T04:49:41;101801.25;;;10.85;100.00
18436;BME280;9346;52.006;4.720;2023-02-18T04:52:08;101794.63;;;10.86;100.00
18436;BME280;9346;52.006;4.720;2023-02-18T04:54:34;101792.97;;;10.85;100.00
18436;BME280;9346;52.006;4.720;2023-02-18T04:57:01;101792.97;;;10.85;100.00
18436;BME280;9346;52.006;4.720;2023-02-18T04:59:28;101796.53;;;10.86;100.00
18436;BME280;9346;52.006;4.720;2023-02-18T05:01:55;101796.28;;;10.87;100.00
18436;BME280;9346;52.006;4.720;2023-02-18T05:04:24;101801.81;;;10.87;100.00
18436;BME280;9346;52.006;4.720;2023-02-18T05:06:51;101796.03;;;10.89;100.00
18436;BME280;9346;52.006;4.720;2023-02-18T05:09:18;101791.38;;;10.89;100.00
18436;BME280;9346;52.006;4.720;2023-02-18T05:11:46;101794.72;;;10.91;100.00
18436;BME280;9346;52.006;4.720;2023-02-18T05:14:13;101790.03;;;10.92;100.00
18436;BME280;9346;52.006;4.720;2023-02-18T05:16:40;101784.25;;;10.93;100.00
18436;BME280;9346;52.006;4.720;2023-02-18T05:19:09;101790.38;;;10.95;100.00
18436;BME280;9346;52.006;4.720;2023-02-18T05:21:40;101800.03;;;10.98;100.00
18436;BME280;9346;52.006;4.720;2023-02-18T05:24:07;101798.97;;;10.99;100.00
18436;BME280;9346;52.006;4.720;2023-02-18T05:26:35;101786.25;;;10.98;100.00
18436;BME280;9346;52.006;4.720;2023-02-18T05:29:02;101781.00;;;10.96;100.00
18436;BME280;9346;52.006;4.720;2023-02-18T05:31:29;101777.44;;;10.96;100.00
18436;BME280;9346;52.006;4.720;2023-02-18T05:33:56;101771.06;;;10.95;100.00
18436;BME280;9346;52.006;4.720;2023-02-18T05:36:23;101766.41;;;10.96;100.00
18436;BME280;9346;52.006;4.720;2023-02-18T05:38:52;101770.81;;;10.97;100.00
18436;BME280;9346;52.006;4.720;2023-02-18T05:41:19;101764.19;;;10.98;100.00
18436;BME280;9346;52.006;4.720;2023-02-18T05:43:46;101770.31;;;11.00;100.00
18436;BME280;9346;52.006;4.720;2023-02-18T05:46:30;101767.56;;;11.00;100.00
18436;BME280;9346;52.006;4.720;2023-02-18T05:48:57;101763.94;;;10.99;100.00
18436;BME280;9346;52.006;4.720;2023-02-18T05:51:24;101753.75;;;11.00;100.00
18436;BME280;9346;52.006;4.720;2023-02-18T05:53:53;101759.84;;;11.02;100.00
18436;BME280;9346;52.006;4.720;2023-02-18T05:56:20;101767.56;;;11.00;100.00
18436;BME280;9346;52.006;4.720;2023-02-18T05:58:48;101760.94;;;11.01;100.00
18436;BME280;9346;52.006;4.720;2023-02-18T06:01:15;101762.84;;;11.00;100.00
18436;BME280;9346;52.006;4.720;2023-02-18T06:03:42;101772.22;;;10.99;100.00
18436;BME280;9346;52.006;4.720;2023-02-18T06:06:09;101765.34;;;11.02;100.00
18436;BME280;9346;52.006;4.720;2023-02-18T06:08:36;101757.34;;;11.00;100.00
18436;BME280;9346;52.006;4.720;2023-02-18T06:11:05;101754.88;;;10.99;100.00
18436;BME280;9346;52.006;4.720;2023-02-18T06:13:32;101763.69;;;11.01;100.00
18436;BME280;9346;52.006;4.720;2023-02-18T06:15:58;101747.41;;;10.99;100.00
18436;BME280;9346;52.006;4.720;2023-02-18T06:18:25;101751.50;;;10.97;100.00
18436;BME280;9346;52.006;4.720;2023-02-18T06:20:53;101744.34;;;10.96;100.00
18436;BME280;9346;52.006;4.720;2023-02-18T06:23:20;101740.50;;;10.97;100.00
18436;BME280;9346;52.006;4.720;2023-02-18T06:25:47;101755.38;;;10.96;100.00
18436;BME280;9346;52.006;4.720;2023-02-18T06:28:17;101745.16;;;10.96;100.00
18436;BME280;9346;52.006;4.720;2023-02-18T06:30:44;101730.56;;;10.96;100.00
18436;BME280;9346;52.006;4.720;2023-02-18T06:33:11;101743.50;;;10.95;100.00
18436;BME280;9346;52.006;4.720;2023-02-18T06:35:39;101742.16;;;10.98;100.00
18436;BME280;9346;52.006;4.720;2023-02-18T06:38:06;101736.88;;;10.96;100.00
18436;BME280;9346;52.006;4.720;2023-02-18T06:40:33;101738.84;;;10.96;100.00
18436;BME280;9346;52.006;4.720;2023-02-18T06:43:01;101739.66;;;10.96;100.00
18436;BME280;9346;52.006;4.720;2023-02-18T06:45:30;101735.81;;;10.97;100.00
18436;BME280;9346;52.006;4.720;2023-02-18T06:47:56;101729.47;;;10.97;100.00
18436;BME280;9346;52.006;4.720;2023-02-18T06:50:23;101748.75;;;10.97;100.00
18436;BME280;9346;52.006;4.720;2023-02-18T06:52:50;101728.63;;;10.96;100.00
18436;BME280;9346;52.006;4.720;2023-02-18T06:55:17;101732.72;;;10.94;100.00
18436;BME280;9346;52.006;4.720;2023-02-18T06:57:45;101732.97;;;10.92;100.00
18436;BME280;9346;52.006;4.720;2023-02-18T07:00:12;101741.00;;;10.94;100.00
18436;BME280;9346;52.006;4.720;2023-02-18T07:02:41;101742.91;;;10.93;100.00
18436;BME280;9346;52.006;4.720;2023-02-18T07:05:08;101732.72;;;10.94;100.00
18436;BME280;9346;52.006;4.720;2023-02-18T07:07:35;101728.31;;;10.93;100.00
18436;BME280;9346;52.006;4.720;2023-02-18T07:10:02;101736.84;;;10.91;100.00
18436;BME280;9346;52.006;4.720;2023-02-18T07:12:29;101736.84;;;10.91;100.00
18436;BME280;9346;52.006;4.720;2023-02-18T07:14:56;101728.31;;;10.93;100.00
18436;BME280;9346;52.006;4.720;2023-02-18T07:17:23;101728.81;;;10.90;100.00
18436;BME280;9346;52.006;4.720;2023-02-18T07:19:52;101727.97;;;10.89;100.00
18436;BME280;9346;52.006;4.720;2023-02-18T07:22:20;101718.06;;;10.88;100.00
18436;BME280;9346;52.006;4.720;2023-02-18T07:24:49;101722.97;;;10.86;100.00
18436;BME280;9346;52.006;4.720;2023-02-18T07:27:17;101720.47;;;10.85;100.00
18436;BME280;9346;52.006;4.720;2023-02-18T07:29:44;101731.50;;;10.85;100.00
18436;BME280;9346;52.006;4.720;2023-02-18T07:32:11;101717.72;;;10.85;100.00
18436;BME280;9346;52.006;4.720;2023-02-18T07:34:39;101711.09;;;10.86;100.00
18436;BME280;9346;52.006;4.720;2023-02-18T07:37:07;101714.66;;;10.81;100.00
18436;BME280;9346;52.006;4.720;2023-02-18T07:39:39;101712.72;;;10.82;100.00
18436;BME280;9346;52.006;4.720;2023-02-18T07:42:06;101701.94;;;10.80;100.00
18436;BME280;9346;52.006;4.720;2023-02-18T07:44:33;101704.44;;;10.82;100.00
18436;BME280;9346;52.006;4.720;2023-02-18T07:47:00;101716.31;;;10.82;100.00
18436;BME280;9346;52.006;4.720;2023-02-18T07:49:28;101711.38;;;10.84;100.00
18436;BME280;9346;52.006;4.720;2023-02-18T07:51:55;101712.19;;;10.85;100.00
18436;BME280;9346;52.006;4.720;2023-02-18T07:54:23;101711.09;;;10.86;100.00
18436;BME280;9346;52.006;4.720;2023-02-18T07:56:51;101718.31;;;10.87;100.00
18436;BME280;9346;52.006;4.720;2023-02-18T07:59:19;101716.63;;;10.86;100.00
18436;BME280;9346;52.006;4.720;2023-02-18T08:01:46;101722.13;;;10.86;100.00
18436;BME280;9346;52.006;4.720;2023-02-18T08:04:13;101720.22;;;10.86;100.00
18436;BME280;9346;52.006;4.720;2023-02-18T08:06:43;101726.56;;;10.87;100.00
18436;BME280;9346;52.006;4.720;2023-02-18T08:09:11;101726.06;;;10.90;100.00
18436;BME280;9346;52.006;4.720;2023-02-18T08:11:40;101719.13;;;10.87;100.00
18436;BME280;9346;52.006;4.720;2023-02-18T08:14:08;101723.56;;;10.88;100.00
18436;BME280;9346;52.006;4.720;2023-02-18T08:16:35;101717.47;;;10.86;100.00
18436;BME280;9346;52.006;4.720;2023-02-18T08:19:02;101697.91;;;10.88;100.00
18436;BME280;9346;52.006;4.720;2023-02-18T08:21:29;101716.09;;;10.89;100.00
18436;BME280;9346;52.006;4.720;2023-02-18T08:23:57;101709.53;;;10.90;100.00
18436;BME280;9346;52.006;4.720;2023-02-18T08:26:24;101702.06;;;10.90;100.00
18436;BME280;9346;52.006;4.720;2023-02-18T08:28:53;101715.84;;;10.90;100.00
18436;BME280;9346;52.006;4.720;2023-02-18T08:31:22;101714.19;;;10.89;100.00
18436;BME280;9346;52.006;4.720;2023-02-18T08:33:50;101718.31;;;10.87;100.00
18436;BME280;9346;52.006;4.720;2023-02-18T08:36:18;101716.63;;;10.86;100.00
18436;BME280;9346;52.006;4.720;2023-02-18T08:38:45;101719.38;;;10.86;100.00
18436;BME280;9346;52.006;4.720;2023-02-18T08:41:12;101714.97;;;10.85;100.00
18436;BME280;9346;52.006;4.720;2023-02-18T08:43:40;101711.94;;;10.86;100.00
18436;BME280;9346;52.006;4.720;2023-02-18T08:46:09;101717.72;;;10.85;100.00
18436;BME280;9346;52.006;4.720;2023-02-18T08:48:36;101707.03;;;10.88;100.00
18436;BME280;9346;52.006;4.720;2023-02-18T08:51:11;101719.97;;;10.88;100.00
18436;BME280;9346;52.006;4.720;2023-02-18T08:53:38;101726.06;;;10.90;100.00
18436;BME280;9346;52.006;4.720;2023-02-18T08:56:06;101728.81;;;10.90;100.00
18436;BME280;9346;52.006;4.720;2023-02-18T08:58:33;101734.63;;;10.93;100.00
18436;BME280;9346;52.006;4.720;2023-02-18T09:01:03;101723.63;;;10.93;100.00
18436;BME280;9346;52.006;4.720;2023-02-18T09:03:33;101720.59;;;10.95;100.00
18436;BME280;9346;52.006;4.720;2023-02-18T09:06:01;101735.81;;;10.97;100.00
18436;BME280;9346;52.006;4.720;2023-02-18T09:08:28;101738.31;;;10.99;100.00
18436;BME280;9346;52.006;4.720;2023-02-18T09:10:55;101744.41;;;11.01;100.00
18436;BME280;9346;52.006;4.720;2023-02-18T09:13:25;101740.53;;;11.02;100.00
18436;BME280;9346;52.006;4.720;2023-02-18T09:15:57;101752.41;;;11.02;100.00
18436;BME280;9346;52.006;4.720;2023-02-18T09:18:25;101746.66;;;11.04;100.00
18436;BME280;9346;52.006;4.720;2023-02-18T09:20:58;101739.53;;;11.08;100.00
18436;BME280;9346;52.006;4.720;2023-02-18T09:23:27;101755.81;;;11.09;100.00
18436;BME280;9346;52.006;4.720;2023-02-18T09:25:54;101753.31;;;11.08;100.00
18436;BME280;9346;52.006;4.720;2023-02-18T09:28:22;101760.78;;;11.07;100.00
18436;BME280;9346;52.006;4.720;2023-02-18T09:30:49;101774.03;;;11.10;100.00
18436;BME280;9346;52.006;4.720;2023-02-18T09:33:17;101773.53;;;11.13;100.00
18436;BME280;9346;52.006;4.720;2023-02-18T09:35:45;101769.44;;;11.16;100.00
18436;BME280;9346;52.006;4.720;2023-02-18T09:38:15;101761.72;;;11.18;100.00
18436;BME280;9346;52.006;4.720;2023-02-18T09:40:45;101771.66;;;11.19;100.00
18436;BME280;9346;52.006;4.720;2023-02-18T09:43:21;101757.28;;;11.17;100.00
18436;BME280;9346;52.006;4.720;2023-02-18T09:45:50;101768.31;;;11.17;100.00
18436;BME280;9346;52.006;4.720;2023-02-18T09:48:20;101769.97;;;11.18;100.00
18436;BME280;9346;52.006;4.720;2023-02-18T09:50:52;101777.75;;;11.21;100.00
18436;BME280;9346;52.006;4.720;2023-02-18T09:53:22;101780.00;;;11.24;100.00
18436;BME280;9346;52.006;4.720;2023-02-18T09:55:51;101786.94;;;11.26;100.00
18436;BME280;9346;52.006;4.720;2023-02-18T09:58:20;101785.59;;;11.29;100.00
18436;BME280;9346;52.006;4.720;2023-02-18T10:00:50;101789.75;;;11.31;100.00
18436;BME280;9346;52.006;4.720;2023-02-18T10:03:19;101765.78;;;11.32;100.00
18436;BME280;9346;52.006;4.720;2023-02-18T10:05:55;101783.13;;;11.32;100.00
18436;BME280;9346;52.006;4.720;2023-02-18T10:08:27;101776.56;;;11.33;100.00
18436;BME280;9346;52.006;4.720;2023-02-18T10:10:54;101777.94;;;11.36;100.00
18436;BME280;9346;52.006;4.720;2023-02-18T10:13:23;101786.31;;;11.41;100.00
18436;BME280;9346;52.006;4.720;2023-02-18T10:15:51;101797.91;;;11.43;100.00
18436;BME280;9346;52.006;4.720;2023-02-18T10:18:24;101801.25;;;11.45;100.00
18436;BME280;9346;52.006;4.720;2023-02-18T10:20:54;101805.91;;;11.45;100.00
18436;BME280;9346;52.006;4.720;2023-02-18T10:23:25;101802.31;;;11.44;100.00
18436;BME280;9346;52.006;4.720;2023-02-18T10:25:54;101802.91;;;11.46;100.00
18436;BME280;9346;52.006;4.720;2023-02-18T10:28:23;101813.44;;;11.49;100.00
18436;BME280;9346;52.006;4.720;2023-02-18T10:30:56;101809.56;;;11.50;100.00
18436;BME280;9346;52.006;4.720;2023-02-18T10:33:32;101819.84;;;11.55;100.00
18436;BME280;9346;52.006;4.720;2023-02-18T10:36:06;101797.50;;;11.56;100.00
18436;BME280;9346;52.006;4.720;2023-02-18T10:38:48;101811.38;;;11.61;100.00
18436;BME280;9346;52.006;4.720;2023-02-18T10:41:26;101836.22;;;11.61;100.00
18436;BME280;9346;52.006;4.720;2023-02-18T10:44:04;101833.47;;;11.61;100.00
18436;BME280;9346;52.006;4.720;2023-02-18T10:46:38;101824.69;;;11.64;100.00
18436;BME280;9346;52.006;4.720;2023-02-18T10:49:24;101826.34;;;11.65;100.00
18436;BME280;9346;52.006;4.720;2023-02-18T10:51:58;101824.44;;;11.66;100.00
18436;BME280;9346;52.006;4.720;2023-02-18T10:54:48;101819.47;;;11.68;100.00
18436;BME280;9346;52.006;4.720;2023-02-18T10:57:17;101831.63;;;11.67;100.00
18436;BME280;9346;52.006;4.720;2023-02-18T10:59:54;101827.19;;;11.66;100.00
18436;BME280;9346;52.006;4.720;2023-02-18T11:02:25;101814.22;;;11.66;100.00
18436;BME280;9346;52.006;4.720;2023-02-18T11:04:54;101825.00;;;11.68;100.00
18436;BME280;9346;52.006;4.720;2023-02-18T11:07:26;101817.91;;;11.72;100.00
18436;BME280;9346;52.006;4.720;2023-02-18T11:09:57;101807.41;;;11.74;100.00
18436;BME280;9346;52.006;4.720;2023-02-18T11:12:28;101816.03;;;11.77;100.00
18436;BME280;9346;52.006;4.720;2023-02-18T11:15:17;101824.34;;;11.82;100.00
18436;BME280;9346;52.006;4.720;2023-02-18T11:17:46;101827.09;;;11.82;100.00
18436;BME280;9346;52.006;4.720;2023-02-18T11:20:26;101810.53;;;11.82;100.00
18436;BME280;9346;52.006;4.720;2023-02-18T11:22:56;101837.38;;;11.87;100.00
18436;BME280;9346;52.006;4.720;2023-02-18T11:25:27;101838.78;;;11.89;100.00
18436;BME280;9346;52.006;4.720;2023-02-18T11:28:00;101831.34;;;11.90;100.00
18436;BME280;9346;52.006;4.720;2023-02-18T11:30:32;101821.41;;;11.89;100.00
18436;BME280;9346;52.006;4.720;2023-02-18T11:33:03;101815.63;;;11.90;100.00
18436;BME280;9346;52.006;4.720;2023-02-18T11:35:33;101823.63;;;11.92;100.00
18436;BME280;9346;52.006;4.720;2023-02-18T11:38:02;101828.31;;;11.91;100.00
18436;BME280;9346;52.006;4.720;2023-02-18T11:40:41;101822.28;;;11.94;100.00
18436;BME280;9346;52.006;4.720;2023-02-18T11:43:11;101825.03;;;11.94;100.00
18436;BME280;9346;52.006;4.720;2023-02-18T11:45:40;101834.16;;;11.95;100.00
18436;BME280;9346;52.006;4.720;2023-02-18T11:48:14;101822.88;;;11.96;100.00
18436;BME280;9346;52.006;4.720;2023-02-18T11:50:42;101829.53;;;12.00;100.00
18436;BME280;9346;52.006;4.720;2023-02-18T11:53:26;101832.03;;;12.02;100.00
18436;BME280;9346;52.006;4.720;2023-02-18T11:55:57;101820.72;;;12.03;100.00
18436;BME280;9346;52.006;4.720;2023-02-18T11:58:26;101816.84;;;12.04;100.00
18436;BME280;9346;52.006;4.720;2023-02-18T12:00:55;101815.75;;;12.05;100.00
18436;BME280;9346;52.006;4.720;2023-02-18T12:03:29;101811.91;;;12.06;100.00
18436;BME280;9346;52.006;4.720;2023-02-18T12:06:01;101821.88;;;12.07;100.00
18436;BME280;9346;52.006;4.720;2023-02-18T12:08:32;101814.16;;;12.09;100.00
18436;BME280;9346;52.006;4.720;2023-02-18T12:11:08;101815.31;;;12.13;100.00
18436;BME280;9346;52.006;4.720;2023-02-18T12:13:38;101807.59;;;12.15;100.00
18436;BME280;9346;52.006;4.720;2023-02-18T12:16:14;101812.06;;;12.21;100.00
18436;BME280;9346;52.006;4.720;2023-02-18T12:18:54;101812.13;;;12.26;100.00
18436;BME280;9346;52.006;4.720;2023-02-18T12:21:31;101819.34;;;12.32;100.00
18436;BME280;9346;52.006;4.720;2023-02-18T12:24:12;101799.78;;;12.39;100.00
18436;BME280;9346;52.006;4.720;2023-02-18T12:26:53;101808.13;;;12.44;100.00
18436;BME280;9346;52.006;4.720;2023-02-18T12:29:42;101793.78;;;12.47;100.00
18436;BME280;9346;52.006;4.720;2023-02-18T12:32:18;101809.59;;;12.51;100.00
18436;BME280;9346;52.006;4.720;2023-02-18T12:35:03;101812.91;;;12.53;100.00
18436;BME280;9346;52.006;4.720;2023-02-18T12:37:56;101802.09;;;12.52;100.00
18436;BME280;9346;52.006;4.720;2023-02-18T12:40:50;101801.84;;;12.53;100.00
18436;BME280;9346;52.006;4.720;2023-02-18T12:43:35;101806.28;;;12.54;100.00
18436;BME280;9346;52.006;4.720;2023-02-18T12:46:23;101806.03;;;12.56;100.00
18436;BME280;9346;52.006;4.720;2023-02-18T12:49:20;101799.72;;;12.60;100.00
18436;BME280;9346;52.006;4.720;2023-02-18T12:52:01;101814.66;;;12.64;100.00
18436;BME280;9346;52.006;4.720;2023-02-18T12:54:46;101815.78;;;12.68;100.00
18436;BME280;9346;52.006;4.720;2023-02-18T12:57:35;101805.59;;;12.74;100.00
18436;BME280;9346;52.006;4.720;2023-02-18T13:00:32;101812.53;;;12.76;100.00
18436;BME280;9346;52.006;4.720;2023-02-18T13:03:46;101814.75;;;12.74;100.00
18436;BME280;9346;52.006;4.720;2023-02-18T13:06:35;101812.50;;;12.71;100.00
18436;BME280;9346;52.006;4.720;2023-02-18T13:09:10;101813.88;;;12.69;100.00
18436;BME280;9346;52.006;4.720;2023-02-18T13:11:46;101816.63;;;12.69;100.00